sensor_id;sensor_type;location;lat;lon;timestamp;pressure;altitude;pressure_sealevel;temperature;humidity
18323;BME280;9287;49.456;11.064;2023-04-27T00:00:12;98318.34;;;6.59;100.00
18323;BME280;9287;49.456;11.064;2023-04-27T00:02:45;98317.72;;;6.62;100.00
18323;BME280;9287;49.456;11.064;2023-04-27T00:05:16;98314.22;;;6.53;100.00
18323;BME280;9287;49.456;11.064;2023-04-27T00:07:45;98312.09;;;6.41;100.00
18323;BME280;9287;49.456;11.064;2023-04-27T00:10:14;98313.56;;;6.39;100.00
18323;BME280;9287;49.456;11.064;2023-04-27T00:12:49;98319.63;;;6.36;100.00
18323;BME280;9287;49.456;11.064;2023-04-27T00:15:23;98305.22;;;6.26;100.00
18323;BME280;9287;49.456;11.064;2023-04-27T00:17:54;98298.06;;;6.22;100.00
18323;BME280;9287;49.456;11.064;2023-04-27T00:20:24;98303.81;;;6.20;100.00
18323;BME280;9287;49.456;11.064;2023-04-27T00:22:52;98306.50;;;6.20;100.00
18323;BME280;9287;49.456;11.064;2023-04-27T00:25:24;98304.28;;;6.22;100.00
18323;BME280;9287;49.456;11.064;2023-04-27T00:27:53;98302.69;;;6.21;100.00
18323;BME280;9287;49.456;11.064;2023-04-27T00:30:23;98291.53;;;6.32;100.00
18323;BME280;9287;49.456;11.064;2023-04-27T00:32:52;98296.31;;;6.35;100.00
18323;BME280;9287;49.456;11.064;2023-04-27T00:35:22;98289.28;;;6.34;100.00
18323;BME280;9287;49.456;11.064;2023-04-27T00:37:52;98294.72;;;6.34;100.00
18323;BME280;9287;49.456;11.064;2023-04-27T00:40:23;98301.13;;;6.38;100.00
18323;BME280;9287;49.456;11.064;2023-04-27T00:42:51;98291.06;;;6.47;100.00
18323;BME280;9287;49.456;11.064;2023-04-27T00:45:20;98290.56;;;6.45;100.00
18323;BME280;9287;49.456;11.064;2023-04-27T00:47:53;98293.47;;;6.40;100.00
18323;BME280;9287;49.456;11.064;2023-04-27T00:50:27;98298.38;;;6.29;100.00
18323;BME280;9287;49.456;11.064;2023-04-27T00:52:57;98294.09;;;6.37;100.00
18323;BME280;9287;49.456;11.064;2023-04-27T00:55:25;98295.69;;;6.38;100.00
18323;BME280;9287;49.456;11.064;2023-04-27T00:57:53;98295.69;;;6.38;100.00
18323;BME280;9287;49.456;11.064;2023-04-27T01:00:23;98293.13;;;6.33;99.36
18323;BME280;9287;49.456;11.064;2023-04-27T01:02:54;98281.13;;;6.25;98.48
18323;BME280;9287;49.456;11.064;2023-04-27T01:05:25;98290.25;;;6.20;97.20
18323;BME280;9287;49.456;11.064;2023-04-27T01:07:55;98282.88;;;6.12;94.33
18323;BME280;9287;49.456;11.064;2023-04-27T01:10:23;98284.47;;;6.13;93.71
18323;BME280;9287;49.456;11.064;2023-04-27T01:12:53;98291.50;;;6.14;93.40
18323;BME280;9287;49.456;11.064;2023-04-27T01:15:24;98293.03;;;5.98;94.48
18323;BME280;9287;49.456;11.064;2023-04-27T01:17:59;98283.34;;;6.06;94.68
18323;BME280;9287;49.456;11.064;2023-04-27T01:20:29;98287.28;;;5.91;94.90
18323;BME280;9287;49.456;11.064;2023-04-27T01:22:58;98284.44;;;5.96;92.09
18323;BME280;9287;49.456;11.064;2023-04-27T01:25:30;98285.59;;;5.73;93.35
18323;BME280;9287;49.456;11.064;2023-04-27T01:28:01;98292.59;;;5.74;92.64
18323;BME280;9287;49.456;11.064;2023-04-27T01:30:29;98288.47;;;5.76;92.57
18323;BME280;9287;49.456;11.064;2023-04-27T01:32:58;98292.28;;;5.67;94.90
18323;BME280;9287;49.456;11.064;2023-04-27T01:35:28;98293.88;;;5.68;94.75
18323;BME280;9287;49.456;11.064;2023-04-27T01:37:58;98296.78;;;5.80;94.29
18323;BME280;9287;49.456;11.064;2023-04-27T01:40:27;98291.97;;;5.77;95.54
18323;BME280;9287;49.456;11.064;2023-04-27T01:42:56;98296.59;;;5.76;95.48
18323;BME280;9287;49.456;11.064;2023-04-27T01:45:24;98294.50;;;5.65;94.25
18323;BME280;9287;49.456;11.064;2023-04-27T01:47:53;98292.59;;;5.74;93.08
18323;BME280;9287;49.456;11.064;2023-04-27T01:50:22;98299.00;;;5.78;91.76
18323;BME280;9287;49.456;11.064;2023-04-27T01:52:51;98299.31;;;5.76;94.01
18323;BME280;9287;49.456;11.064;2023-04-27T01:55:19;98293.56;;;5.78;93.34
18323;BME280;9287;49.456;11.064;2023-04-27T01:57:48;98292.28;;;5.67;92.69
18323;BME280;9287;49.456;11.064;2023-04-27T02:00:18;98298.66;;;5.71;92.76
18323;BME280;9287;49.456;11.064;2023-04-27T02:02:47;98304.72;;;5.68;93.13
18323;BME280;9287;49.456;11.064;2023-04-27T02:05:21;98304.72;;;5.68;94.64
18323;BME280;9287;49.456;11.064;2023-04-27T02:07:49;98293.25;;;5.71;93.69
18323;BME280;9287;49.456;11.064;2023-04-27T02:10:18;98296.09;;;5.66;94.32
18323;BME280;9287;49.456;11.064;2023-04-27T02:12:49;98295.97;;;5.71;93.68
18323;BME280;9287;49.456;11.064;2023-04-27T02:15:22;98294.50;;;5.65;94.20
18323;BME280;9287;49.456;11.064;2023-04-27T02:17:52;98293.50;;;5.60;96.67
18323;BME280;9287;49.456;11.064;2023-04-27T02:20:20;98289.25;;;5.68;95.48
18323;BME280;9287;49.456;11.064;2023-04-27T02:22:52;98305.19;;;5.70;95.97
18323;BME280;9287;49.456;11.064;2023-04-27T02:25:25;98296.09;;;5.66;97.84
18323;BME280;9287;49.456;11.064;2023-04-27T02:27:54;98300.97;;;5.55;99.31
18323;BME280;9287;49.456;11.064;2023-04-27T02:30:24;98292.72;;;5.60;98.76
18323;BME280;9287;49.456;11.064;2023-04-27T02:32:53;98293.78;;;5.50;99.23
18323;BME280;9287;49.456;11.064;2023-04-27T02:35:31;98297.94;;;5.56;98.05
18323;BME280;9287;49.456;11.064;2023-04-27T02:37:59;98301.75;;;5.55;98.02
18323;BME280;9287;49.456;11.064;2023-04-27T02:40:27;98301.13;;;5.58;97.49
18323;BME280;9287;49.456;11.064;2023-04-27T02:43:00;98303.22;;;5.62;97.07
18323;BME280;9287;49.456;11.064;2023-04-27T02:45:37;98305.13;;;5.61;96.15
18323;BME280;9287;49.456;11.064;2023-04-27T02:48:07;98307.34;;;5.50;96.64
18323;BME280;9287;49.456;11.064;2023-04-27T02:50:39;98302.75;;;5.59;95.44
18323;BME280;9287;49.456;11.064;2023-04-27T02:53:08;98308.34;;;5.63;95.76
18323;BME280;9287;49.456;11.064;2023-04-27T02:55:44;98309.56;;;5.48;97.10
18323;BME280;9287;49.456;11.064;2023-04-27T02:58:14;98302.44;;;5.61;97.00
18323;BME280;9287;49.456;11.064;2023-04-27T03:00:54;98311.97;;;5.58;97.31
18323;BME280;9287;49.456;11.064;2023-04-27T03:03:23;98314.19;;;5.56;97.62
18323;BME280;9287;49.456;11.064;2023-04-27T03:05:52;98316.78;;;5.62;97.50
18323;BME280;9287;49.456;11.064;2023-04-27T03:08:26;98316.41;;;5.54;97.01
18323;BME280;9287;49.456;11.064;2023-04-27T03:10:57;98314.47;;;5.46;97.77
18323;BME280;9287;49.456;11.064;2023-04-27T03:13:28;98307.81;;;5.52;97.05
18323;BME280;9287;49.456;11.064;2023-04-27T03:15:58;98309.06;;;5.46;96.25
18323;BME280;9287;49.456;11.064;2023-04-27T03:18:27;98310.47;;;5.44;96.25
18323;BME280;9287;49.456;11.064;2023-04-27T03:21:05;98317.69;;;5.48;96.30
18323;BME280;9287;49.456;11.064;2023-04-27T03:23:33;98311.88;;;5.41;97.21
18323;BME280;9287;49.456;11.064;2023-04-27T03:26:05;98310.91;;;5.37;98.33
18323;BME280;9287;49.456;11.064;2023-04-27T03:28:35;98321.13;;;5.40;99.07
18323;BME280;9287;49.456;11.064;2023-04-27T03:31:06;98318.91;;;5.42;99.22
18323;BME280;9287;49.456;11.064;2023-04-27T03:33:36;98322.22;;;5.39;100.00
18323;BME280;9287;49.456;11.064;2023-04-27T03:36:10;98321.28;;;5.35;100.00
18323;BME280;9287;49.456;11.064;2023-04-27T03:38:38;98321.41;;;5.30;100.00
18323;BME280;9287;49.456;11.064;2023-04-27T03:41:08;98324.34;;;5.20;100.00
18323;BME280;9287;49.456;11.064;2023-04-27T03:43:36;98321.03;;;5.23;100.00
18323;BME280;9287;49.456;11.064;2023-04-27T03:46:11;98328.66;;;5.21;100.00
18323;BME280;9287;49.456;11.064;2023-04-27T03:48:39;98336.03;;;5.29;100.00
18323;BME280;9287;49.456;11.064;2023-04-27T03:51:14;98337.53;;;5.35;100.00
18323;BME280;9287;49.456;11.064;2023-04-27T03:53:44;98334.44;;;5.28;100.00
18323;BME280;9287;49.456;11.064;2023-04-27T03:56:12;98341.44;;;5.29;100.00
18323;BME280;9287;49.456;11.064;2023-04-27T03:58:40;98343.94;;;5.17;100.00
18323;BME280;9287;49.456;11.064;2023-04-27T04:01:11;98349.09;;;5.27;100.00
18323;BME280;9287;49.456;11.064;2023-04-27T04:03:43;98347.84;;;5.33;100.00
18323;BME280;9287;49.456;11.064;2023-04-27T04:06:14;98347.84;;;5.33;100.00
18323;BME280;9287;49.456;11.064;2023-04-27T04:08:54;98349.47;;;5.34;100.00
18323;BME280;9287;49.456;11.064;2023-04-27T04:11:25;98351.66;;;5.32;100.00
18323;BME280;9287;49.456;11.064;2023-04-27T04:13:56;98352.28;;;5.29;100.00
18323;BME280;9287;49.456;11.064;2023-04-27T04:16:25;98346.59;;;5.39;100.00
18323;BME280;9287;49.456;11.064;2023-04-27T04:18:55;98341.97;;;5.40;100.00
18323;BME280;9287;49.456;11.064;2023-04-27T04:21:27;98341.81;;;5.36;100.00
18323;BME280;9287;49.456;11.064;2023-04-27T04:23:55;98338.63;;;5.34;100.00
18323;BME280;9287;49.456;11.064;2023-04-27T04:26:25;98334.53;;;5.45;100.00
18323;BME280;9287;49.456;11.064;2023-04-27T04:28:54;98331.34;;;5.43;100.00
18323;BME280;9287;49.456;11.064;2023-04-27T04:31:23;98336.16;;;5.46;100.00
18323;BME280;9287;49.456;11.064;2023-04-27T04:33:54;98335.03;;;5.47;100.00
18323;BME280;9287;49.456;11.064;2023-04-27T04:36:31;98331.16;;;5.40;100.00
18323;BME280;9287;49.456;11.064;2023-04-27T04:39:00;98337.97;;;5.37;100.00
18323;BME280;9287;49.456;11.064;2023-04-27T04:41:30;98340.06;;;5.40;100.00
18323;BME280;9287;49.456;11.064;2023-04-27T04:43:58;98339.53;;;5.52;100.00
18323;BME280;9287;49.456;11.064;2023-04-27T04:46:28;98342.28;;;5.60;97.27
18323;BME280;9287;49.456;11.064;2023-04-27T04:49:00;98340.94;;;5.49;96.39
18323;BME280;9287;49.456;11.064;2023-04-27T04:51:30;98346.38;;;5.49;97.17
18323;BME280;9287;49.456;11.064;2023-04-27T04:54:00;98345.94;;;5.34;100.00
18323;BME280;9287;49.456;11.064;2023-04-27T04:56:31;98342.78;;;5.40;100.00
18323;BME280;9287;49.456;11.064;2023-04-27T04:59:02;98340.16;;;5.49;99.22
18323;BME280;9287;49.456;11.064;2023-04-27T05:01:33;98343.84;;;5.53;98.20
18323;BME280;9287;49.456;11.064;2023-04-27T05:04:15;98333.31;;;5.51;99.35
18323;BME280;9287;49.456;11.064;2023-04-27T05:06:45;98345.16;;;5.64;97.89
18323;BME280;9287;49.456;11.064;2023-04-27T05:09:19;98346.38;;;5.49;98.11
18323;BME280;9287;49.456;11.064;2023-04-27T05:11:49;98346.56;;;5.53;99.27
18323;BME280;9287;49.456;11.064;2023-04-27T05:14:20;98343.88;;;5.62;98.48
18323;BME280;9287;49.456;11.064;2023-04-27T05:16:51;98347.97;;;5.50;98.43
18323;BME280;9287;49.456;11.064;2023-04-27T05:19:21;98347.44;;;5.71;96.97
18323;BME280;9287;49.456;11.064;2023-04-27T05:21:53;98354.22;;;5.59;97.38
18323;BME280;9287;49.456;11.064;2023-04-27T05:24:38;98358.09;;;5.67;96.17
18323;BME280;9287;49.456;11.064;2023-04-27T05:27:08;98361.69;;;5.85;95.53
18323;BME280;9287;49.456;11.064;2023-04-27T05:29:40;98363.59;;;5.84;95.37
18323;BME280;9287;49.456;11.064;2023-04-27T05:32:17;98375.16;;;5.99;93.68
18323;BME280;9287;49.456;11.064;2023-04-27T05:34:47;98371.53;;;6.03;92.07
18323;BME280;9287;49.456;11.064;2023-04-27T05:37:21;98374.44;;;6.15;91.45
18323;BME280;9287;49.456;11.064;2023-04-27T05:40:07;98374.84;;;6.40;87.68
18323;BME280;9287;49.456;11.064;2023-04-27T05:42:36;98376.72;;;6.31;86.09
18323;BME280;9287;49.456;11.064;2023-04-27T05:45:15;98384.41;;;6.37;85.87
18323;BME280;9287;49.456;11.064;2023-04-27T05:47:53;98369.72;;;6.47;86.75
18323;BME280;9287;49.456;11.064;2023-04-27T05:50:32;98368.63;;;6.48;86.71
18323;BME280;9287;49.456;11.064;2023-04-27T05:53:00;98383.16;;;6.52;85.08
18323;BME280;9287;49.456;11.064;2023-04-27T05:55:36;98392.75;;;6.58;84.35
18323;BME280;9287;49.456;11.064;2023-04-27T05:58:06;98382.72;;;6.67;84.73
18323;BME280;9287;49.456;11.064;2023-04-27T06:00:35;98388.94;;;6.76;83.86
18323;BME280;9287;49.456;11.064;2023-04-27T06:03:04;98388.31;;;6.96;82.75
18323;BME280;9287;49.456;11.064;2023-04-27T06:05:33;98393.09;;;6.82;83.43
18323;BME280;9287;49.456;11.064;2023-04-27T06:08:02;98403.66;;;6.92;81.40
18323;BME280;9287;49.456;11.064;2023-04-27T06:10:30;98393.78;;;7.05;80.49
18323;BME280;9287;49.456;11.064;2023-04-27T06:13:01;98400.78;;;6.97;79.48
18323;BME280;9287;49.456;11.064;2023-04-27T06:15:29;98391.53;;;6.98;79.58
18323;BME280;9287;49.456;11.064;2023-04-27T06:17:57;98400.31;;;7.21;76.08
18323;BME280;9287;49.456;11.064;2023-04-27T06:20:25;98395.69;;;7.22;77.83
18323;BME280;9287;49.456;11.064;2023-04-27T06:22:54;98390.53;;;7.46;74.28
18323;BME280;9287;49.456;11.064;2023-04-27T06:25:23;98394.25;;;7.42;73.10
18323;BME280;9287;49.456;11.064;2023-04-27T06:27:52;98393.03;;;7.86;70.24
18323;BME280;9287;49.456;11.064;2023-04-27T06:30:21;98393.75;;;8.12;68.53
18323;BME280;9287;49.456;11.064;2023-04-27T06:32:49;98400.22;;;8.37;65.99
18323;BME280;9287;49.456;11.064;2023-04-27T06:35:17;98396.38;;;8.67;62.98
18323;BME280;9287;49.456;11.064;2023-04-27T06:37:45;98391.69;;;8.09;65.69
18323;BME280;9287;49.456;11.064;2023-04-27T06:40:14;98400.47;;;8.53;64.62
18323;BME280;9287;49.456;11.064;2023-04-27T06:42:42;98405.34;;;8.38;64.70
18323;BME280;9287;49.456;11.064;2023-04-27T06:45:10;98409.94;;;8.76;64.43
18323;BME280;9287;49.456;11.064;2023-04-27T06:47:38;98407.59;;;8.36;64.29
18323;BME280;9287;49.456;11.064;2023-04-27T06:50:06;98408.13;;;8.59;62.69
18323;BME280;9287;49.456;11.064;2023-04-27T06:52:34;98407.13;;;8.64;63.44
18323;BME280;9287;49.456;11.064;2023-04-27T06:55:02;98405.81;;;8.70;62.48
18323;BME280;9287;49.456;11.064;2023-04-27T06:57:31;98405.00;;;8.31;65.15
18323;BME280;9287;49.456;11.064;2023-04-27T06:59:59;98409.19;;;8.37;63.61
18323;BME280;9287;49.456;11.064;2023-04-27T07:02:27;98403.56;;;8.72;62.53
18323;BME280;9287;49.456;11.064;2023-04-27T07:04:55;98404.09;;;8.27;63.97
18323;BME280;9287;49.456;11.064;2023-04-27T07:07:22;98404.31;;;8.14;64.65
18323;BME280;9287;49.456;11.064;2023-04-27T07:09:50;98401.78;;;8.47;62.92
18323;BME280;9287;49.456;11.064;2023-04-27T07:12:18;98396.91;;;8.61;61.62
18323;BME280;9287;49.456;11.064;2023-04-27T07:14:47;98392.00;;;8.75;62.71
18323;BME280;9287;49.456;11.064;2023-04-27T07:17:16;98395.19;;;9.19;59.68
18323;BME280;9287;49.456;11.064;2023-04-27T07:19:44;98390.38;;;9.57;56.92
18323;BME280;9287;49.456;11.064;2023-04-27T07:22:12;98394.53;;;9.75;56.28
18323;BME280;9287;49.456;11.064;2023-04-27T07:24:41;98399.16;;;10.08;56.24
18323;BME280;9287;49.456;11.064;2023-04-27T07:27:09;98400.81;;;10.21;54.85
18323;BME280;9287;49.456;11.064;2023-04-27T07:29:37;98393.19;;;10.39;52.85
18323;BME280;9287;49.456;11.064;2023-04-27T07:32:06;98397.16;;;10.78;52.20
18323;BME280;9287;49.456;11.064;2023-04-27T07:34:35;98404.44;;;10.50;51.27
18323;BME280;9287;49.456;11.064;2023-04-27T07:37:18;98402.91;;;10.16;51.95
18323;BME280;9287;49.456;11.064;2023-04-27T07:39:47;98401.41;;;10.06;51.22
18323;BME280;9287;49.456;11.064;2023-04-27T07:42:15;98406.88;;;11.15;50.17
18323;BME280;9287;49.456;11.064;2023-04-27T07:44:43;98417.38;;;11.81;49.04
18323;BME280;9287;49.456;11.064;2023-04-27T07:47:13;98418.34;;;11.61;48.69
18323;BME280;9287;49.456;11.064;2023-04-27T07:49:41;98413.28;;;12.50;47.14
18323;BME280;9287;49.456;11.064;2023-04-27T07:52:10;98407.22;;;12.92;45.47
18323;BME280;9287;49.456;11.064;2023-04-27T07:54:39;98418.41;;;13.76;44.50
18323;BME280;9287;49.456;11.064;2023-04-27T07:57:07;98419.88;;;13.32;43.74
18323;BME280;9287;49.456;11.064;2023-04-27T07:59:37;98422.03;;;12.56;44.29
18323;BME280;9287;49.456;11.064;2023-04-27T08:02:06;98426.63;;;13.18;43.30
18323;BME280;9287;49.456;11.064;2023-04-27T08:04:46;98423.44;;;13.93;42.21
18323;BME280;9287;49.456;11.064;2023-04-27T08:07:15;98420.13;;;14.72;40.97
18323;BME280;9287;49.456;11.064;2023-04-27T08:09:43;98417.16;;;14.35;42.03
18323;BME280;9287;49.456;11.064;2023-04-27T08:12:11;98410.38;;;15.61;39.67
18323;BME280;9287;49.456;11.064;2023-04-27T08:14:39;98428.84;;;15.30;39.22
18323;BME280;9287;49.456;11.064;2023-04-27T08:17:07;98424.53;;;15.03;38.77
18323;BME280;9287;49.456;11.064;2023-04-27T08:19:35;98421.75;;;16.70;36.64
18323;BME280;9287;49.456;11.064;2023-04-27T08:22:04;98417.31;;;17.93;34.68
18323;BME280;9287;49.456;11.064;2023-04-27T08:24:32;98421.75;;;19.15;32.55
18323;BME280;9287;49.456;11.064;2023-04-27T08:27:00;98416.56;;;18.14;33.80
18323;BME280;9287;49.456;11.064;2023-04-27T08:29:28;98418.94;;;19.29;32.81
18323;BME280;9287;49.456;11.064;2023-04-27T08:31:58;98411.47;;;18.91;31.49
18323;BME280;9287;49.456;11.064;2023-04-27T08:34:26;98420.06;;;19.57;30.51
18323;BME280;9287;49.456;11.064;2023-04-27T08:36:54;98412.34;;;20.62;30.07
18323;BME280;9287;49.456;11.064;2023-04-27T08:39:23;98407.28;;;21.39;29.75
18323;BME280;9287;49.456;11.064;2023-04-27T08:41:51;98403.19;;;22.39;28.20
18323;BME280;9287;49.456;11.064;2023-04-27T08:44:19;98401.06;;;23.20;26.46
18323;BME280;9287;49.456;11.064;2023-04-27T08:46:47;98413.88;;;24.33;25.96
18323;BME280;9287;49.456;11.064;2023-04-27T08:49:16;98400.31;;;23.16;26.70
18323;BME280;9287;49.456;11.064;2023-04-27T08:51:44;98390.56;;;23.47;26.32
18323;BME280;9287;49.456;11.064;2023-04-27T08:54:12;98402.25;;;22.72;26.90
18323;BME280;9287;49.456;11.064;2023-04-27T08:56:41;98397.38;;;21.35;27.64
18323;BME280;9287;49.456;11.064;2023-04-27T08:59:13;98385.78;;;22.58;26.79
18323;BME280;9287;49.456;11.064;2023-04-27T09:01:43;98391.81;;;21.38;28.45
18323;BME280;9287;49.456;11.064;2023-04-27T09:04:11;98394.25;;;23.41;25.82
18323;BME280;9287;49.456;11.064;2023-04-27T09:06:39;98394.03;;;25.53;24.60
18323;BME280;9287;49.456;11.064;2023-04-27T09:09:07;98392.63;;;23.43;26.17
18323;BME280;9287;49.456;11.064;2023-04-27T09:11:37;98391.75;;;24.90;23.83
18323;BME280;9287;49.456;11.064;2023-04-27T09:14:17;98387.63;;;22.91;26.21
18323;BME280;9287;49.456;11.064;2023-04-27T09:16:45;98388.78;;;24.49;24.67
18323;BME280;9287;49.456;11.064;2023-04-27T09:19:22;98384.94;;;25.65;23.41
18323;BME280;9287;49.456;11.064;2023-04-27T09:21:50;98382.44;;;24.12;24.67
18323;BME280;9287;49.456;11.064;2023-04-27T09:24:29;98380.63;;;23.46;25.61
18323;BME280;9287;49.456;11.064;2023-04-27T09:26:57;98369.22;;;23.97;24.33
18323;BME280;9287;49.456;11.064;2023-04-27T09:29:59;98364.19;;;23.32;24.75
18323;BME280;9287;49.456;11.064;2023-04-27T09:32:34;98368.50;;;22.94;25.67
18323;BME280;9287;49.456;11.064;2023-04-27T09:35:02;98363.84;;;23.30;25.98
18323;BME280;9287;49.456;11.064;2023-04-27T09:37:31;98359.16;;;20.71;27.83
18323;BME280;9287;49.456;11.064;2023-04-27T09:40:01;98357.72;;;21.95;26.79
18323;BME280;9287;49.456;11.064;2023-04-27T09:42:30;98353.66;;;22.03;26.40
18323;BME280;9287;49.456;11.064;2023-04-27T09:45:00;98343.06;;;24.59;24.94
18323;BME280;9287;49.456;11.064;2023-04-27T09:47:28;98345.59;;;22.12;26.16
18323;BME280;9287;49.456;11.064;2023-04-27T09:49:58;98356.53;;;21.66;27.16
18323;BME280;9287;49.456;11.064;2023-04-27T09:52:26;98342.72;;;24.73;24.61
18323;BME280;9287;49.456;11.064;2023-04-27T09:54:56;98344.38;;;26.12;22.85
18323;BME280;9287;49.456;11.064;2023-04-27T09:57:32;98336.78;;;26.12;22.53
18323;BME280;9287;49.456;11.064;2023-04-27T10:00:16;98342.88;;;24.66;23.93
18323;BME280;9287;49.456;11.064;2023-04-27T10:02:58;98336.44;;;24.37;24.27
18323;BME280;9287;49.456;11.064;2023-04-27T10:08:19;98339.84;;;21.66;26.98
18323;BME280;9287;49.456;11.064;2023-04-27T10:10:49;98333.16;;;21.90;27.02
18323;BME280;9287;49.456;11.064;2023-04-27T10:13:21;98341.34;;;21.74;27.37
18323;BME280;9287;49.456;11.064;2023-04-27T10:15:51;98341.75;;;20.67;28.69
18323;BME280;9287;49.456;11.064;2023-04-27T10:18:28;98345.00;;;20.58;29.22
18323;BME280;9287;49.456;11.064;2023-04-27T10:20:57;98344.59;;;20.04;28.55
18323;BME280;9287;49.456;11.064;2023-04-27T10:23:45;98346.16;;;19.25;29.67
18323;BME280;9287;49.456;11.064;2023-04-27T10:26:21;98337.00;;;19.50;29.08
18323;BME280;9287;49.456;11.064;2023-04-27T10:29:03;98337.06;;;19.28;29.52
18323;BME280;9287;49.456;11.064;2023-04-27T10:31:34;98343.16;;;19.82;29.31
18323;BME280;9287;49.456;11.064;2023-04-27T10:34:06;98343.69;;;20.73;28.56
18323;BME280;9287;49.456;11.064;2023-04-27T10:36:35;98334.34;;;20.94;28.38
18323;BME280;9287;49.456;11.064;2023-04-27T10:39:13;98325.63;;;22.17;27.19
18323;BME280;9287;49.456;11.064;2023-04-27T10:41:49;98324.56;;;22.35;26.32
18323;BME280;9287;49.456;11.064;2023-04-27T10:44:18;98321.78;;;20.82;27.25
18323;BME280;9287;49.456;11.064;2023-04-27T10:46:52;98313.28;;;20.97;28.05
18323;BME280;9287;49.456;11.064;2023-04-27T10:49:20;98318.66;;;21.48;27.64
18323;BME280;9287;49.456;11.064;2023-04-27T10:51:49;98325.69;;;21.57;28.20
18323;BME280;9287;49.456;11.064;2023-04-27T10:54:17;98326.47;;;20.89;29.20
18323;BME280;9287;49.456;11.064;2023-04-27T10:56:45;98317.88;;;20.76;28.62
18323;BME280;9287;49.456;11.064;2023-04-27T10:59:13;98323.28;;;20.91;28.29
18323;BME280;9287;49.456;11.064;2023-04-27T11:01:41;98315.16;;;20.25;28.26
18323;BME280;9287;49.456;11.064;2023-04-27T11:04:11;98312.78;;;21.09;28.53
18323;BME280;9287;49.456;11.064;2023-04-27T11:06:43;98323.72;;;20.44;27.84
18323;BME280;9287;49.456;11.064;2023-04-27T11:09:12;98317.63;;;20.98;28.56
18323;BME280;9287;49.456;11.064;2023-04-27T11:11:44;98326.06;;;20.46;28.35
18323;BME280;9287;49.456;11.064;2023-04-27T11:14:18;98321.75;;;19.86;28.76
18323;BME280;9287;49.456;11.064;2023-04-27T11:16:46;98316.56;;;20.47;28.84
18323;BME280;9287;49.456;11.064;2023-04-27T11:19:15;98310.31;;;21.48;27.97
18323;BME280;9287;49.456;11.064;2023-04-27T11:21:43;98311.72;;;21.91;27.02
18323;BME280;9287;49.456;11.064;2023-04-27T11:24:12;98314.16;;;20.49;28.71
18323;BME280;9287;49.456;11.064;2023-04-27T11:26:41;98308.88;;;20.13;28.67
18323;BME280;9287;49.456;11.064;2023-04-27T11:29:09;98312.22;;;19.10;29.90
18323;BME280;9287;49.456;11.064;2023-04-27T11:31:40;98310.94;;;19.29;30.34
18323;BME280;9287;49.456;11.064;2023-04-27T11:34:15;98311.16;;;18.62;30.96
18323;BME280;9287;49.456;11.064;2023-04-27T11:36:55;98316.25;;;17.92;31.90
18323;BME280;9287;49.456;11.064;2023-04-27T11:39:43;98308.75;;;17.75;32.69
18323;BME280;9287;49.456;11.064;2023-04-27T11:42:19;98305.63;;;18.65;32.55
18323;BME280;9287;49.456;11.064;2023-04-27T11:44:52;98307.91;;;18.99;31.41
18323;BME280;9287;49.456;11.064;2023-04-27T11:47:20;98312.47;;;19.44;32.42
18323;BME280;9287;49.456;11.064;2023-04-27T11:49:50;98320.09;;;19.99;31.22
18323;BME280;9287;49.456;11.064;2023-04-27T11:52:19;98315.06;;;20.39;30.80
18323;BME280;9287;49.456;11.064;2023-04-27T11:54:47;98313.44;;;20.82;29.96
18323;BME280;9287;49.456;11.064;2023-04-27T11:57:15;98317.34;;;21.26;28.84
18323;BME280;9287;49.456;11.064;2023-04-27T11:59:43;98312.03;;;20.19;30.91
18323;BME280;9287;49.456;11.064;2023-04-27T12:02:11;98309.81;;;19.96;31.14
18323;BME280;9287;49.456;11.064;2023-04-27T12:04:39;98311.91;;;18.55;32.36
18323;BME280;9287;49.456;11.064;2023-04-27T12:07:09;98308.88;;;19.47;31.77
18323;BME280;9287;49.456;11.064;2023-04-27T12:09:37;98309.31;;;19.42;31.47
18323;BME280;9287;49.456;11.064;2023-04-27T12:12:05;98306.91;;;19.44;32.17
18323;BME280;9287;49.456;11.064;2023-04-27T12:14:34;98304.78;;;18.83;32.90
18323;BME280;9287;49.456;11.064;2023-04-27T12:17:01;98296.09;;;18.77;33.75
18323;BME280;9287;49.456;11.064;2023-04-27T12:19:29;98300.03;;;18.87;32.48
18323;BME280;9287;49.456;11.064;2023-04-27T12:21:57;98293.88;;;19.45;32.88
18323;BME280;9287;49.456;11.064;2023-04-27T12:24:26;98293.53;;;19.36;32.65
18323;BME280;9287;49.456;11.064;2023-04-27T12:26:54;98287.41;;;18.71;32.75
18323;BME280;9287;49.456;11.064;2023-04-27T12:29:23;98280.69;;;18.87;33.37
18323;BME280;9287;49.456;11.064;2023-04-27T12:31:51;98290.56;;;18.81;33.91
18323;BME280;9287;49.456;11.064;2023-04-27T12:34:20;98283.47;;;18.58;33.92
18323;BME280;9287;49.456;11.064;2023-04-27T12:36:48;98285.88;;;17.92;33.98
18323;BME280;9287;49.456;11.064;2023-04-27T12:39:17;98286.28;;;17.98;34.71
18323;BME280;9287;49.456;11.064;2023-04-27T12:41:47;98278.78;;;18.30;34.24
18323;BME280;9287;49.456;11.064;2023-04-27T12:44:16;98287.47;;;18.15;34.39
18323;BME280;9287;49.456;11.064;2023-04-27T12:46:45;98282.72;;;17.76;35.51
18323;BME280;9287;49.456;11.064;2023-04-27T12:49:14;98289.03;;;17.80;34.73
18323;BME280;9287;49.456;11.064;2023-04-27T12:51:42;98282.72;;;18.12;35.91
18323;BME280;9287;49.456;11.064;2023-04-27T12:54:11;98282.72;;;18.22;35.47
18323;BME280;9287;49.456;11.064;2023-04-27T12:56:39;98284.28;;;18.20;35.52
18323;BME280;9287;49.456;11.064;2023-04-27T12:59:08;98282.34;;;18.09;35.03
18323;BME280;9287;49.456;11.064;2023-04-27T13:01:36;98282.72;;;18.12;35.65
18323;BME280;9287;49.456;11.064;2023-04-27T13:04:06;98281.09;;;17.71;35.15
18323;BME280;9287;49.456;11.064;2023-04-27T13:06:34;98284.88;;;17.10;35.46
18323;BME280;9287;49.456;11.064;2023-04-27T13:09:03;98279.16;;;17.93;35.35
18323;BME280;9287;49.456;11.064;2023-04-27T13:11:32;98285.03;;;17.67;35.73
18323;BME280;9287;49.456;11.064;2023-04-27T13:13:59;98284.13;;;17.27;35.75
18323;BME280;9287;49.456;11.064;2023-04-27T13:16:28;98270.84;;;17.72;35.88
18323;BME280;9287;49.456;11.064;2023-04-27T13:18:56;98278.75;;;17.84;35.90
18323;BME280;9287;49.456;11.064;2023-04-27T13:21:24;98276.38;;;17.72;36.57
18323;BME280;9287;49.456;11.064;2023-04-27T13:23:52;98282.69;;;17.69;35.38